Time;durP1;ratioP1;P1;durP2;ratioP2;P2;SDS_P1;SDS_P2;PMS_P1;PMS_P2;Temp;Humidity;BMP_temperature;BMP_pressure;BME280_temperature;BME280_humidity;BME280_pressure;Samples;Min_cycle;Max_cycle;Signal;HPM_P1;HPM_P2
2023/06/17 00:00:30;;;;;;;;;;;;;;;17.43;57.75;98258.47;7373593;19;20005;-75
2023/06/17 00:02:57;;;;;;;;;;;;;;;17.33;57.86;98264.22;7370505;19;19919;-74
2023/06/17 00:05:24;;;;;;;;;;;;;;;17.37;57.07;98261.97;7369420;19;19922;-73
2023/06/17 00:07:51;;;;;;;;;;;;;;;17.35;57.04;98256.81;7374985;19;19918;-71
2023/06/17 00:10:18;;;;;;;;;;;;;;;17.30;57.32;98251.28;7367092;19;19929;-73
2023/06/17 00:12:45;;;;;;;;;;;;;;;17.30;57.53;98248.59;7371987;19;19990;-74
2023/06/17 00:15:12;;;;;;;;;;;;;;;17.39;57.41;98251.91;7363141;19;19922;-73
2023/06/17 00:17:40;;;;;;;;;;;;;;;17.41;56.57;98253.34;7375154;19;19949;-74
2023/06/17 00:20:11;;;;;;;;;;;;;;;17.38;58.33;98248.41;7367096;19;19915;-72
2023/06/17 00:22:39;;;;;;;;;;;;;;;17.43;57.00;98248.63;7371897;19;19933;-77
2023/06/17 00:25:06;;;;;;;;;;;;;;;17.46;56.85;98248.22;7367155;19;19919;-73
2023/06/17 00:27:33;;;;;;;;;;;;;;;17.45;56.34;98243.06;7371343;19;19919;-72
2023/06/17 00:30:00;;;;;;;;;;;;;;;17.34;56.31;98241.81;7368456;19;19919;-73
2023/06/17 00:32:27;;;;;;;;;;;;;;;17.00;58.07;98232.84;7369297;19;19918;-72
2023/06/17 00:34:54;;;;;;;;;;;;;;;16.91;59.18;98243.94;7374192;19;19919;-73
2023/06/17 00:37:21;;;;;;;;;;;;;;;16.80;59.57;98248.00;7366881;19;19933;-72
2023/06/17 00:39:48;;;;;;;;;;;;;;;16.89;59.45;98241.47;7371642;19;19925;-74
2023/06/17 00:42:15;;;;;;;;;;;;;;;16.97;59.12;98243.97;7364639;19;19990;-72
2023/06/17 00:44:42;;;;;;;;;;;;;;;16.96;58.48;98236.16;7370602;19;19922;-74
2023/06/17 00:47:09;;;;;;;;;;;;;;;16.90;58.99;98237.75;7363420;19;19990;-73
2023/06/17 00:49:37;;;;;;;;;;;;;;;16.86;58.66;98237.34;7369265;19;19983;-76
2023/06/17 00:52:04;;;;;;;;;;;;;;;16.70;60.05;98242.16;7363913;19;20350;-72
2023/06/17 00:54:52;;;;;;;;;;;;;;;16.87;60.02;98243.50;7373280;19;19927;-73
2023/06/17 00:57:18;;;;;;;;;;;;;;;16.89;60.20;98230.78;7363656;19;19937;-75
2023/06/17 00:59:45;;;;;;;;;;;;;;;16.83;60.42;98237.75;7371416;19;19939;-72
2023/06/17 01:02:13;;;;;;;;;;;;;;;16.75;60.22;98234.41;7360180;19;19915;-75
2023/06/17 01:04:42;;;;;;;;;;;;;;;16.84;58.95;98238.56;7369132;19;19923;-72
2023/06/17 01:07:23;;;;;;;;;;;;;;;16.91;59.70;98233.25;7362453;19;20351;-72
2023/06/17 01:10:04;;;;;;;;;;;;;;;16.88;59.27;98234.47;7371385;19;19950;-72
2023/06/17 01:12:31;;;;;;;;;;;;;;;16.76;59.10;98241.38;7365931;19;19927;-76
2023/06/17 01:14:58;;;;;;;;;;;;;;;16.58;60.46;98234.69;7373409;19;19919;-73
2023/06/17 01:17:25;;;;;;;;;;;;;;;16.48;61.68;98244.09;7366773;19;19922;-74
2023/06/17 01:19:53;;;;;;;;;;;;;;;16.42;60.85;98241.19;7370820;19;19919;-73
2023/06/17 01:22:20;;;;;;;;;;;;;;;16.50;60.70;98242.06;7362544;19;19918;-74
2023/06/17 01:24:47;;;;;;;;;;;;;;;16.40;61.34;98229.06;7368414;19;19933;-73
2023/06/17 01:27:15;;;;;;;;;;;;;;;16.40;61.60;98235.25;7365851;19;19937;-72
2023/06/17 01:29:48;;;;;;;;;;;;;;;16.36;61.98;98241.97;7372029;19;19929;-74
2023/06/17 01:32:15;;;;;;;;;;;;;;;16.30;61.88;98241.91;7357386;19;20414;-72
2023/06/17 01:34:42;;;;;;;;;;;;;;;16.31;61.58;98240.91;7368060;19;19914;-72
2023/06/17 01:37:10;;;;;;;;;;;;;;;16.43;60.26;98242.03;7359575;19;19929;-72
2023/06/17 01:39:39;;;;;;;;;;;;;;;16.44;60.03;98241.00;7366621;19;19937;-72
2023/06/17 01:42:07;;;;;;;;;;;;;;;16.15;61.11;98242.03;7362112;19;19922;-71
2023/06/17 01:44:34;;;;;;;;;;;;;;;15.95;62.51;98236.56;7366305;19;19930;-71
2023/06/17 01:47:02;;;;;;;;;;;;;;;15.89;62.53;98237.34;7364968;19;19933;-73
2023/06/17 01:49:28;;;;;;;;;;;;;;;15.88;62.48;98236.50;7367332;19;20370;-74
2023/06/17 01:51:55;;;;;;;;;;;;;;;15.96;62.38;98241.72;7367841;19;20404;-77
2023/06/17 01:54:22;;;;;;;;;;;;;;;16.08;62.21;98243.84;7359172;19;20320;-72
2023/06/17 01:56:49;;;;;;;;;;;;;;;16.03;62.08;98236.41;7367621;19;20396;-74
2023/06/17 01:59:16;;;;;;;;;;;;;;;16.11;62.22;98233.59;7362718;19;19918;-73
2023/06/17 02:01:42;;;;;;;;;;;;;;;16.12;62.75;98239.78;7365879;19;19934;-74
2023/06/17 02:04:10;;;;;;;;;;;;;;;16.26;62.03;98243.34;7362489;19;19925;-71
2023/06/17 02:06:39;;;;;;;;;;;;;;;16.34;60.54;98229.84;7363275;19;19946;-71
2023/06/17 02:09:06;;;;;;;;;;;;;;;16.38;60.59;98237.28;7361702;19;19923;-72
2023/06/17 02:11:33;;;;;;;;;;;;;;;16.28;60.62;98238.66;7362611;19;19919;-72
2023/06/17 02:14:00;;;;;;;;;;;;;;;15.93;61.25;98242.09;7362863;19;20470;-72
2023/06/17 02:16:26;;;;;;;;;;;;;;;15.61;63.17;98246.06;7367150;19;20335;-71
2023/06/17 02:18:54;;;;;;;;;;;;;;;15.65;62.96;98235.88;7375462;19;19910;-71
2023/06/17 02:21:21;;;;;;;;;;;;;;;15.45;63.73;98241.81;7369530;19;20365;-71
2023/06/17 02:23:49;;;;;;;;;;;;;;;15.44;64.59;98236.69;7372891;19;19926;-71
2023/06/17 02:26:18;;;;;;;;;;;;;;;15.44;64.42;98236.69;7366448;19;19919;-71
2023/06/17 02:28:46;;;;;;;;;;;;;;;15.45;63.51;98233.00;7377178;19;20002;-71
2023/06/17 02:31:13;;;;;;;;;;;;;;;15.34;64.58;98227.16;7367654;19;20214;-73
2023/06/17 02:33:40;;;;;;;;;;;;;;;15.21;65.58;98232.34;7372813;19;19929;-71
2023/06/17 02:36:09;;;;;;;;;;;;;;;15.21;65.65;98229.69;7371516;19;19982;-71
2023/06/17 02:38:36;;;;;;;;;;;;;;;15.45;63.74;98222.34;7370374;19;19915;-73
2023/06/17 02:41:03;;;;;;;;;;;;;;;15.39;63.77;98223.13;7368763;19;19918;-75
2023/06/17 02:43:30;;;;;;;;;;;;;;;15.43;63.89;98227.03;7372946;19;20425;-71
2023/06/17 02:45:57;;;;;;;;;;;;;;;15.28;64.01;98221.78;7376177;19;19985;-72
2023/06/17 02:48:24;;;;;;;;;;;;;;;15.12;65.18;98221.00;7367329;19;19922;-74
2023/06/17 02:50:53;;;;;;;;;;;;;;;15.14;64.88;98216.31;7374568;19;19915;-72
2023/06/17 02:53:20;;;;;;;;;;;;;;;14.96;65.40;98217.75;7366046;19;19943;-74
2023/06/17 02:55:48;;;;;;;;;;;;;;;15.01;66.06;98220.63;7347092;19;19923;-75
2023/06/17 02:58:18;;;;;;;;;;;;;;;15.08;66.58;98213.56;7360357;19;19945;-75
2023/06/17 03:00:50;;;;;;;;;;;;;;;15.07;66.46;98225.25;7370262;19;20431;-75
2023/06/17 03:03:17;;;;;;;;;;;;;;;15.17;65.86;98225.75;7365121;19;19925;-74
2023/06/17 03:05:44;;;;;;;;;;;;;;;15.15;64.76;98223.28;7373112;19;19922;-74
2023/06/17 03:08:14;;;;;;;;;;;;;;;14.99;65.40;98228.03;7369260;19;19925;-74
2023/06/17 03:10:41;;;;;;;;;;;;;;;15.11;65.56;98222.03;7374190;19;19979;-72
2023/06/17 03:13:11;;;;;;;;;;;;;;;15.13;64.79;98221.81;7363478;19;20011;-73
2023/06/17 03:15:42;;;;;;;;;;;;;;;15.05;64.59;98219.25;7373249;19;20337;-72
2023/06/17 03:18:09;;;;;;;;;;;;;;;14.99;64.80;98223.50;7363477;19;19919;-72
2023/06/17 03:20:38;;;;;;;;;;;;;;;15.09;64.90;98232.03;7369697;19;20041;-72
2023/06/17 03:23:05;;;;;;;;;;;;;;;15.15;65.10;98225.13;7368952;19;20673;-74
2023/06/17 03:25:32;;;;;;;;;;;;;;;15.05;65.61;98222.75;7367729;19;19935;-72
2023/06/17 03:28:01;;;;;;;;;;;;;;;15.18;65.13;98232.72;7374271;19;19950;-73
2023/06/17 03:30:29;;;;;;;;;;;;;;;15.15;64.81;98220.63;7362293;19;19935;-73
2023/06/17 03:33:00;;;;;;;;;;;;;;;14.85;66.09;98225.19;7370269;19;19938;-73
2023/06/17 03:35:27;;;;;;;;;;;;;;;15.05;64.80;98232.59;7367530;19;19919;-73
2023/06/17 03:37:54;;;;;;;;;;;;;;;14.96;65.00;98233.72;7371341;19;19919;-75
2023/06/17 03:40:20;;;;;;;;;;;;;;;14.89;64.99;98234.44;7363886;19;19939;-72
2023/06/17 03:42:48;;;;;;;;;;;;;;;14.80;66.30;98237.44;7370091;19;19919;-74
2023/06/17 03:45:15;;;;;;;;;;;;;;;14.88;67.18;98232.81;7365958;19;19940;-72
2023/06/17 03:47:41;;;;;;;;;;;;;;;15.09;66.01;98239.22;7367932;19;19918;-73
2023/06/17 03:50:09;;;;;;;;;;;;;;;15.21;65.38;98239.53;7360452;19;19978;-72
2023/06/17 03:52:36;;;;;;;;;;;;;;;15.14;65.38;98240.28;7371148;19;19978;-73
2023/06/17 03:55:03;;;;;;;;;;;;;;;15.28;65.42;98246.59;7371209;19;20011;-74
2023/06/17 03:57:30;;;;;;;;;;;;;;;15.30;64.93;98247.22;7362172;19;20837;-74
2023/06/17 03:59:57;;;;;;;;;;;;;;;15.43;64.30;98245.69;7373189;19;19918;-72
2023/06/17 04:02:23;;;;;;;;;;;;;;;15.49;64.63;98244.94;7363218;19;19970;-72
2023/06/17 04:04:52;;;;;;;;;;;;;;;15.66;63.35;98240.19;7369233;19;19954;-72
2023/06/17 04:07:20;;;;;;;;;;;;;;;15.72;63.11;98240.28;7366829;19;19918;-75
2023/06/17 04:09:47;;;;;;;;;;;;;;;15.78;62.60;98236.00;7372173;19;19923;-72
2023/06/17 04:12:31;;;;;;;;;;;;;;;15.79;63.21;98238.47;7365939;19;19931;-73
2023/06/17 04:14:59;;;;;;;;;;;;;;;15.81;63.64;98238.28;7365652;19;20715;-72
2023/06/17 04:17:26;;;;;;;;;;;;;;;15.88;63.17;98235.69;7364038;19;19922;-74
2023/06/17 04:19:54;;;;;;;;;;;;;;;16.00;62.82;98234.13;7371952;19;20611;-72
2023/06/17 04:22:21;;;;;;;;;;;;;;;16.16;61.92;98244.50;7365207;19;20649;-74
2023/06/17 04:24:48;;;;;;;;;;;;;;;16.11;61.41;98244.25;7371920;19;19923;-72
2023/06/17 04:27:15;;;;;;;;;;;;;;;15.89;61.58;98248.81;7369432;19;20249;-72
2023/06/17 04:29:42;;;;;;;;;;;;;;;15.62;62.64;98253.06;7368852;19;19946;-73
2023/06/17 04:32:10;;;;;;;;;;;;;;;15.67;62.87;98255.19;7364773;19;19933;-74
2023/06/17 04:34:38;;;;;;;;;;;;;;;15.68;63.05;98243.47;7368061;19;19922;-74
2023/06/17 04:37:05;;;;;;;;;;;;;;;15.92;62.97;98235.09;7372580;19;19925;-72
2023/06/17 04:39:34;;;;;;;;;;;;;;;16.03;62.01;98241.75;7371417;19;19915;-73
2023/06/17 04:42:02;;;;;;;;;;;;;;;16.07;62.52;98236.84;7371100;19;19939;-72
2023/06/17 04:44:31;;;;;;;;;;;;;;;16.15;62.31;98240.19;7364221;19;21009;-72
2023/06/17 04:46:59;;;;;;;;;;;;;;;16.13;62.04;98236.88;7370202;19;19929;-72
2023/06/17 04:49:27;;;;;;;;;;;;;;;16.14;62.15;98235.03;7363673;19;19911;-74
2023/06/17 04:51:53;;;;;;;;;;;;;;;16.12;62.17;98243.25;7369016;19;19988;-72
2023/06/17 04:54:20;;;;;;;;;;;;;;;16.15;61.94;98236.72;7360143;19;20363;-71
2023/06/17 04:56:48;;;;;;;;;;;;;;;16.17;62.78;98240.84;7366567;19;19919;-72
2023/06/17 04:59:15;;;;;;;;;;;;;;;16.34;63.06;98235.19;7367180;19;19982;-72
2023/06/17 05:01:42;;;;;;;;;;;;;;;16.58;62.27;98237.38;7371023;19;19915;-71
2023/06/17 05:04:09;;;;;;;;;;;;;;;16.59;62.80;98236.38;7361332;19;20252;-74
2023/06/17 05:06:36;;;;;;;;;;;;;;;16.79;61.99;98241.00;7367849;19;19923;-74
2023/06/17 05:09:03;;;;;;;;;;;;;;;16.91;60.98;98238.59;7370463;19;19937;-71
2023/06/17 05:11:31;;;;;;;;;;;;;;;16.95;60.44;98237.97;7365345;19;19953;-73
2023/06/17 05:13:58;;;;;;;;;;;;;;;16.98;60.17;98237.59;7372145;19;19930;-73
2023/06/17 05:16:24;;;;;;;;;;;;;;;16.93;60.49;98239.19;7366866;19;19964;-74
2023/06/17 05:18:51;;;;;;;;;;;;;;;17.04;60.61;98233.31;7371820;19;19923;-73
2023/06/17 05:21:21;;;;;;;;;;;;;;;17.09;60.49;98239.69;7365482;19;19922;-72
2023/06/17 05:23:50;;;;;;;;;;;;;;;17.29;59.85;98236.25;7368616;19;19994;-71
2023/06/17 05:26:17;;;;;;;;;;;;;;;17.44;59.17;98236.88;7366548;19;19930;-72
2023/06/17 05:28:44;;;;;;;;;;;;;;;17.56;58.70;98239.78;7370623;19;19915;-71
2023/06/17 05:31:11;;;;;;;;;;;;;;;17.71;58.33;98239.59;7363761;19;19931;-75
2023/06/17 05:33:38;;;;;;;;;;;;;;;17.78;58.26;98235.91;7368926;19;19969;-71
2023/06/17 05:36:06;;;;;;;;;;;;;;;17.80;57.82;98235.75;7373608;19;19918;-72
2023/06/17 05:38:33;;;;;;;;;;;;;;;17.82;57.80;98239.00;7365094;19;19915;-72
2023/06/17 05:40:59;;;;;;;;;;;;;;;17.97;56.97;98244.16;7371304;19;19918;-72
2023/06/17 05:43:28;;;;;;;;;;;;;;;18.08;55.77;98234.69;7365521;19;20541;-71
2023/06/17 05:45:56;;;;;;;;;;;;;;;18.28;55.64;98237.34;7363919;19;20291;-72
2023/06/17 05:48:23;;;;;;;;;;;;;;;18.41;55.80;98229.28;7366941;19;19929;-74
2023/06/17 05:50:52;;;;;;;;;;;;;;;18.60;55.05;98243.66;7370717;19;20331;-74
2023/06/17 05:53:18;;;;;;;;;;;;;;;18.75;54.98;98241.59;7371858;19;19919;-72
2023/06/17 05:55:46;;;;;;;;;;;;;;;18.92;54.56;98241.13;7368002;19;19934;-72
2023/06/17 05:58:12;;;;;;;;;;;;;;;19.00;53.46;98241.69;7370529;19;19933;-71
2023/06/17 06:00:47;;;;;;;;;;;;;;;19.07;53.25;98247.84;7373240;19;19930;-72
2023/06/17 06:03:14;;;;;;;;;;;;;;;19.24;52.80;98244.66;7374679;19;19918;-72
2023/06/17 06:05:41;;;;;;;;;;;;;;;19.31;52.58;98245.47;7376078;19;19943;-71
2023/06/17 06:08:08;;;;;;;;;;;;;;;19.51;52.21;98245.38;7377886;19;19930;-74
2023/06/17 06:10:34;;;;;;;;;;;;;;;19.59;51.21;98253.16;7370733;19;19956;-72
2023/06/17 06:13:01;;;;;;;;;;;;;;;19.62;51.96;98247.34;7372093;19;19919;-71
2023/06/17 06:15:29;;;;;;;;;;;;;;;19.83;51.95;98256.13;7368106;19;20594;-75
2023/06/17 06:17:55;;;;;;;;;;;;;;;20.02;49.99;98249.75;7375814;19;19919;-72
2023/06/17 06:20:22;;;;;;;;;;;;;;;20.19;50.21;98252.69;7373274;19;19933;-72
2023/06/17 06:22:49;;;;;;;;;;;;;;;20.49;49.61;98249.31;7374972;19;19925;-72
2023/06/17 06:25:16;;;;;;;;;;;;;;;20.88;48.98;98245.41;7377583;19;20323;-72
2023/06/17 06:27:44;;;;;;;;;;;;;;;21.19;47.85;98248.94;7374216;19;19983;-73
2023/06/17 06:30:12;;;;;;;;;;;;;;;21.64;47.72;98243.16;7375767;19;19926;-74
2023/06/17 06:32:42;;;;;;;;;;;;;;;21.83;46.71;98252.81;7373824;19;20002;-74
2023/06/17 06:35:10;;;;;;;;;;;;;;;22.06;46.67;98251.19;7371271;19;20372;-73
2023/06/17 06:37:37;;;;;;;;;;;;;;;22.15;45.99;98241.72;7372207;19;20648;-72
2023/06/17 06:40:05;;;;;;;;;;;;;;;21.99;45.82;98258.59;7372721;19;19919;-73
2023/06/17 06:42:34;;;;;;;;;;;;;;;21.99;47.78;98255.88;7369634;19;19971;-72
2023/06/17 06:45:23;;;;;;;;;;;;;;;22.02;45.67;98253.53;7365889;19;19914;-73
2023/06/17 06:47:49;;;;;;;;;;;;;;;22.02;45.54;98255.41;7373392;19;19974;-72
2023/06/17 06:50:16;;;;;;;;;;;;;;;22.06;46.63;98259.28;7370248;19;19915;-74
2023/06/17 06:52:47;;;;;;;;;;;;;;;22.05;45.53;98254.94;7370242;19;19915;-73
2023/06/17 06:55:14;;;;;;;;;;;;;;;22.02;46.07;98260.81;7371998;19;20368;-73
2023/06/17 06:57:43;;;;;;;;;;;;;;;22.07;44.97;98263.63;7374119;19;19927;-74
2023/06/17 07:00:11;;;;;;;;;;;;;;;22.07;45.15;98263.63;7374372;19;19962;-73
2023/06/17 07:02:40;;;;;;;;;;;;;;;22.21;45.10;98261.56;7370526;19;19998;-73
2023/06/17 07:05:07;;;;;;;;;;;;;;;22.12;44.99;98267.25;7371001;19;19925;-73
2023/06/17 07:07:40;;;;;;;;;;;;;;;22.23;44.65;98270.22;7372171;19;19915;-74
2023/06/17 07:10:07;;;;;;;;;;;;;;;22.24;44.66;98267.28;7374248;19;20753;-73
2023/06/17 07:12:35;;;;;;;;;;;;;;;22.24;42.11;98261.91;7369808;19;19922;-73
2023/06/17 07:15:03;;;;;;;;;;;;;;;22.29;44.65;98264.72;7373238;19;19925;-72
2023/06/17 07:17:30;;;;;;;;;;;;;;;22.19;41.16;98263.66;7371114;19;19935;-75
2023/06/17 07:19:57;;;;;;;;;;;;;;;22.24;44.58;98259.19;7371390;19;19919;-73
2023/06/17 07:22:23;;;;;;;;;;;;;;;22.44;43.23;98266.94;7367400;19;19952;-73
2023/06/17 07:24:50;;;;;;;;;;;;;;;22.52;43.05;98260.38;7370368;19;19919;-74
2023/06/17 07:27:17;;;;;;;;;;;;;;;22.64;42.56;98271.97;7374129;19;19918;-74
2023/06/17 07:29:43;;;;;;;;;;;;;;;22.77;43.58;98263.63;7374361;19;19925;-74
2023/06/17 07:32:11;;;;;;;;;;;;;;;22.87;42.00;98262.22;7367595;19;19949;-74
2023/06/17 07:34:38;;;;;;;;;;;;;;;22.94;42.55;98263.72;7367649;19;19915;-73
2023/06/17 07:37:04;;;;;;;;;;;;;;;22.99;42.14;98261.16;7368944;19;19990;-72
2023/06/17 07:39:32;;;;;;;;;;;;;;;23.31;42.44;98265.28;7370838;19;19918;-73
2023/06/17 07:41:59;;;;;;;;;;;;;;;23.44;42.96;98260.41;7369830;19;19945;-74
2023/06/17 07:44:26;;;;;;;;;;;;;;;23.41;43.51;98265.47;7371187;19;19930;-74
2023/06/17 07:46:52;;;;;;;;;;;;;;;23.34;39.61;98259.41;7374275;19;19933;-74
2023/06/17 07:49:19;;;;;;;;;;;;;;;23.51;40.96;98262.94;7372216;19;19923;-73
2023/06/17 07:51:46;;;;;;;;;;;;;;;23.65;42.23;98260.78;7367064;19;19930;-75
2023/06/17 07:54:13;;;;;;;;;;;;;;;23.92;41.70;98260.19;7376334;19;19922;-73
2023/06/17 07:56:40;;;;;;;;;;;;;;;24.26;38.96;98261.00;7370403;19;19948;-74
2023/06/17 07:59:07;;;;;;;;;;;;;;;24.42;40.63;98251.22;7372953;19;19929;-73
2023/06/17 08:01:35;;;;;;;;;;;;;;;24.65;38.70;98250.25;7368995;19;20632;-74
2023/06/17 08:04:02;;;;;;;;;;;;;;;24.78;41.14;98247.16;7375217;19;19919;-72
2023/06/17 08:06:29;;;;;;;;;;;;;;;24.65;38.69;98244.81;7370685;19;19930;-73
2023/06/17 08:08:56;;;;;;;;;;;;;;;24.81;39.84;98243.94;7374905;19;19923;-72
2023/06/17 08:11:22;;;;;;;;;;;;;;;24.95;41.32;98238.97;7367769;19;20268;-72
2023/06/17 08:13:49;;;;;;;;;;;;;;;25.15;37.56;98241.97;7369437;19;20276;-74
2023/06/17 08:16:16;;;;;;;;;;;;;;;24.69;39.69;98246.75;7365708;19;19952;-74
2023/06/17 08:18:42;;;;;;;;;;;;;;;24.57;40.18;98246.06;7371691;19;19923;-73
2023/06/17 08:21:09;;;;;;;;;;;;;;;24.51;36.97;98237.06;7372357;19;19922;-74
2023/06/17 08:23:36;;;;;;;;;;;;;;;24.99;37.66;98229.28;7367083;19;19915;-73
2023/06/17 08:26:03;;;;;;;;;;;;;;;25.02;37.95;98225.25;7370231;19;19923;-74
2023/06/17 08:28:29;;;;;;;;;;;;;;;24.87;38.38;98236.72;7358863;19;19922;-74
2023/06/17 08:30:56;;;;;;;;;;;;;;;25.29;37.26;98231.53;7370845;19;19919;-77
2023/06/17 08:33:23;;;;;;;;;;;;;;;25.68;35.17;98225.16;7373689;19;20381;-78
2023/06/17 08:35:49;;;;;;;;;;;;;;;25.84;36.08;98229.66;7380984;19;19918;-73
2023/06/17 08:38:16;;;;;;;;;;;;;;;25.88;34.99;98228.06;7374294;19;19915;-74
2023/06/17 08:40:43;;;;;;;;;;;;;;;25.87;34.49;98223.72;7369044;19;19919;-77
2023/06/17 08:43:10;;;;;;;;;;;;;;;25.91;33.82;98224.00;7372686;19;19930;-73
2023/06/17 08:45:37;;;;;;;;;;;;;;;26.06;34.60;98222.22;7372708;19;19929;-73
2023/06/17 08:48:05;;;;;;;;;;;;;;;26.13;33.07;98219.31;7370056;19;19919;-75
2023/06/17 08:50:32;;;;;;;;;;;;;;;26.25;33.78;98219.09;7369155;19;19931;-74
2023/06/17 08:52:59;;;;;;;;;;;;;;;26.18;34.83;98226.66;7372470;19;19914;-73
2023/06/17 08:55:25;;;;;;;;;;;;;;;26.36;33.07;98223.53;7367368;19;19922;-75
2023/06/17 08:57:52;;;;;;;;;;;;;;;26.43;30.39;98221.38;7370917;19;19919;-73
2023/06/17 09:00:19;;;;;;;;;;;;;;;26.55;29.32;98223.94;7367857;19;19930;-78
2023/06/17 09:02:47;;;;;;;;;;;;;;;26.81;30.30;98213.22;7368527;19;20418;-74
2023/06/17 09:05:14;;;;;;;;;;;;;;;26.80;30.34;98215.09;7370388;19;19915;-74
2023/06/17 09:07:41;;;;;;;;;;;;;;;26.90;28.30;98209.72;7366157;19;19918;-74
2023/06/17 09:10:09;;;;;;;;;;;;;;;27.10;29.44;98213.59;7373470;19;19930;-75
2023/06/17 09:12:37;;;;;;;;;;;;;;;27.17;29.42;98211.44;7369939;19;19922;-75
2023/06/17 09:15:07;;;;;;;;;;;;;;;27.47;29.58;98209.91;7369271;19;19922;-75
2023/06/17 09:17:36;;;;;;;;;;;;;;;27.38;29.95;98208.78;7366479;19;19931;-73
2023/06/17 09:20:12;;;;;;;;;;;;;;;27.18;31.71;98215.00;7356665;19;19923;-73
2023/06/17 09:22:39;;;;;;;;;;;;;;;27.06;29.97;98207.84;7345808;19;19929;-73
2023/06/17 09:25:11;;;;;;;;;;;;;;;27.13;27.88;98211.16;7364219;19;19986;-75
2023/06/17 09:27:48;;;;;;;;;;;;;;;27.14;28.58;98207.34;7363098;19;19929;-74
2023/06/17 09:30:35;;;;;;;;;;;;;;;27.24;30.25;98206.59;7352508;19;19927;-72
2023/06/17 09:33:02;;;;;;;;;;;;;;;27.59;28.85;98210.44;7356304;19;21067;-76
2023/06/17 09:35:29;;;;;;;;;;;;;;;27.46;30.43;98206.38;7362827;19;20395;-72
2023/06/17 09:37:56;;;;;;;;;;;;;;;27.63;29.46;98203.38;7375078;19;20315;-76
2023/06/17 09:40:33;;;;;;;;;;;;;;;27.53;30.60;98201.47;7376686;19;20008;-74
2023/06/17 09:43:01;;;;;;;;;;;;;;;27.68;29.68;98194.44;7380750;19;19945;-75
2023/06/17 09:45:50;;;;;;;;;;;;;;;27.43;28.55;98195.22;7376677;19;19922;-76
2023/06/17 09:48:17;;;;;;;;;;;;;;;27.69;28.51;98190.63;7375899;19;19930;-76
2023/06/17 09:50:44;;;;;;;;;;;;;;;27.49;28.51;98189.53;7373274;19;20297;-73
2023/06/17 09:53:11;;;;;;;;;;;;;;;27.63;28.34;98191.72;7378077;19;19923;-73
2023/06/17 09:55:38;;;;;;;;;;;;;;;27.63;29.92;98189.00;7348384;19;20356;-74
2023/06/17 09:58:04;;;;;;;;;;;;;;;27.88;28.84;98183.56;7356739;19;19918;-75
2023/06/17 10:00:31;;;;;;;;;;;;;;;27.93;28.68;98186.28;7368701;19;19926;-73
2023/06/17 10:02:58;;;;;;;;;;;;;;;28.05;27.29;98182.47;7359267;19;19925;-72
2023/06/17 10:05:25;;;;;;;;;;;;;;;27.82;28.23;98181.94;7354455;19;19935;-76
2023/06/17 10:07:52;;;;;;;;;;;;;;;27.75;27.57;98187.63;7361883;19;19919;-73
2023/06/17 10:10:19;;;;;;;;;;;;;;;27.58;31.27;98170.78;7356227;19;20019;-74
2023/06/17 10:15:58;;;;;;;;;;;;;;;27.77;27.06;98162.88;7307124;19;20063;-73
2023/06/17 10:18:25;;;;;;;;;;;;;;;28.00;25.94;98162.34;7363538;19;19993;-75
2023/06/17 10:20:51;;;;;;;;;;;;;;;27.69;27.53;98166.16;7373427;19;20262;-75
2023/06/17 10:23:19;;;;;;;;;;;;;;;27.77;26.50;98162.88;7376070;19;19930;-73
2023/06/17 10:25:45;;;;;;;;;;;;;;;27.53;26.84;98168.06;7355187;19;19934;-76
2023/06/17 10:28:15;;;;;;;;;;;;;;;27.38;27.91;98160.69;7367176;19;19926;-73
2023/06/17 10:30:48;;;;;;;;;;;;;;;27.41;26.50;98154.75;7366219;19;19953;-79
2023/06/17 10:33:14;;;;;;;;;;;;;;;27.36;27.26;98160.97;7365604;19;20345;-73
2023/06/17 10:35:43;;;;;;;;;;;;;;;27.47;27.20;98153.66;7366600;19;19919;-74
2023/06/17 10:41:39;;;;;;;;;;;;;;;27.67;27.59;98154.72;7329014;19;19925;-76
2023/06/17 10:44:30;;;;;;;;;;;;;;;27.56;28.93;98152.00;7358816;19;19986;-73
2023/06/17 10:46:57;;;;;;;;;;;;;;;27.45;26.37;98147.66;7374389;19;19929;-73
2023/06/17 10:49:24;;;;;;;;;;;;;;;27.27;27.21;98145.47;7372682;19;19911;-75
2023/06/17 10:51:51;;;;;;;;;;;;;;;27.27;27.83;98145.47;7357953;19;20743;-73
2023/06/17 10:54:28;;;;;;;;;;;;;;;27.19;28.63;98144.09;7359394;19;19949;-73
2023/06/17 10:56:55;;;;;;;;;;;;;;;26.88;27.72;98140.47;7348916;19;19942;-73
2023/06/17 10:59:28;;;;;;;;;;;;;;;27.04;26.90;98142.16;7360427;19;19919;-75
2023/06/17 11:02:00;;;;;;;;;;;;;;;27.13;28.00;98134.31;7371425;19;19921;-73
2023/06/17 11:04:27;;;;;;;;;;;;;;;27.22;27.94;98126.47;7372861;19;19950;-72
2023/06/17 11:06:54;;;;;;;;;;;;;;;27.09;27.16;98130.47;7357129;19;19922;-75
2023/06/17 11:09:24;;;;;;;;;;;;;;;27.41;28.19;98130.28;7356357;19;19923;-72
2023/06/17 11:11:51;;;;;;;;;;;;;;;27.36;28.21;98135.72;7362666;19;19956;-74
2023/06/17 11:14:18;;;;;;;;;;;;;;;27.04;26.43;98127.75;7367340;19;19926;-74
2023/06/17 11:16:45;;;;;;;;;;;;;;;27.14;26.93;98127.78;7342825;19;19922;-74
2023/06/17 11:19:13;;;;;;;;;;;;;;;27.24;28.95;98130.53;7349132;19;19919;-74
2023/06/17 11:21:40;;;;;;;;;;;;;;;27.30;28.84;98134.06;7365868;19;19914;-72
2023/06/17 11:24:07;;;;;;;;;;;;;;;27.27;27.55;98138.13;7367109;19;19946;-74
2023/06/17 11:26:34;;;;;;;;;;;;;;;27.13;29.06;98137.81;7363004;19;19930;-73
2023/06/17 11:29:00;;;;;;;;;;;;;;;27.15;28.41;98135.66;7363512;19;20359;-73
2023/06/17 11:31:28;;;;;;;;;;;;;;;27.29;29.44;98124.31;7359376;19;19927;-74
2023/06/17 11:33:56;;;;;;;;;;;;;;;27.23;27.61;98125.41;7357369;19;19919;-72
2023/06/17 11:36:22;;;;;;;;;;;;;;;27.43;29.38;98119.13;7362316;19;19989;-73
2023/06/17 11:38:50;;;;;;;;;;;;;;;27.43;27.30;98122.66;7356611;19;19915;-78
2023/06/17 11:41:17;;;;;;;;;;;;;;;27.23;29.29;98128.91;7352908;19;20014;-73
2023/06/17 11:43:44;;;;;;;;;;;;;;;27.39;28.03;98121.59;7369090;19;19919;-73
2023/06/17 11:46:11;;;;;;;;;;;;;;;27.31;27.31;98114.00;7373356;19;19927;-71
2023/06/17 11:48:37;;;;;;;;;;;;;;;27.38;27.03;98111.78;7357148;19;21338;-72
2023/06/17 11:51:04;;;;;;;;;;;;;;;27.49;28.64;98116.16;7361782;19;19927;-73
2023/06/17 11:53:36;;;;;;;;;;;;;;;27.41;27.67;98116.72;7364167;19;19918;-73
2023/06/17 11:56:05;;;;;;;;;;;;;;;27.43;26.87;98122.66;7373747;19;19922;-73
2023/06/17 11:58:38;;;;;;;;;;;;;;;27.14;26.47;98112.28;7362341;19;19923;-71
2023/06/17 12:01:05;;;;;;;;;;;;;;;27.19;26.18;98114.22;7369597;19;19923;-73
2023/06/17 12:03:32;;;;;;;;;;;;;;;27.24;26.59;98099.84;7362936;19;20018;-74
2023/06/17 12:05:59;;;;;;;;;;;;;;;27.41;27.52;98115.88;7363838;19;19921;-73
2023/06/17 12:08:35;;;;;;;;;;;;;;;27.47;26.86;98110.19;7367340;19;20352;-72
2023/06/17 12:11:07;;;;;;;;;;;;;;;27.29;27.02;98108.00;7363260;19;20025;-72
2023/06/17 12:13:40;;;;;;;;;;;;;;;27.20;26.56;98104.19;7358345;19;19926;-73
2023/06/17 12:16:10;;;;;;;;;;;;;;;27.22;27.22;98104.72;7364922;19;20757;-75
2023/06/17 12:18:37;;;;;;;;;;;;;;;27.14;27.79;98109.56;7341647;19;20352;-74
2023/06/17 12:21:10;;;;;;;;;;;;;;;27.22;26.32;98108.25;7368902;19;19930;-76
2023/06/17 12:23:37;;;;;;;;;;;;;;;27.59;24.97;98101.75;7370911;19;20004;-75
2023/06/17 12:26:04;;;;;;;;;;;;;;;27.57;26.89;98103.94;7373057;19;19930;-73
2023/06/17 12:28:32;;;;;;;;;;;;;;;27.49;27.31;98107.19;7366608;19;19915;-73
2023/06/17 12:30:58;;;;;;;;;;;;;;;27.52;25.28;98095.78;7368623;19;19947;-75
2023/06/17 12:33:25;;;;;;;;;;;;;;;27.64;23.82;98081.91;7370096;19;19923;-73
2023/06/17 12:35:52;;;;;;;;;;;;;;;27.50;21.72;98085.19;7367197;19;19919;-73
2023/06/17 12:38:20;;;;;;;;;;;;;;;27.75;23.55;98086.22;7367261;19;19945;-75
2023/06/17 12:40:46;;;;;;;;;;;;;;;27.90;24.02;98086.22;7365778;19;19922;-73
2023/06/17 12:43:13;;;;;;;;;;;;;;;27.83;23.36;98076.72;7371646;19;20652;-75
2023/06/17 12:45:41;;;;;;;;;;;;;;;27.93;23.88;98076.72;7370976;19;19919;-75
2023/06/17 12:48:09;;;;;;;;;;;;;;;28.00;24.39;98083.50;7369846;19;20385;-74
2023/06/17 12:50:36;;;;;;;;;;;;;;;28.12;24.19;98077.75;7371091;19;19935;-73
2023/06/17 12:53:02;;;;;;;;;;;;;;;28.02;23.58;98067.72;7371008;19;19925;-73
2023/06/17 12:55:29;;;;;;;;;;;;;;;27.85;22.58;98069.94;7368041;19;19923;-74
2023/06/17 12:57:56;;;;;;;;;;;;;;;28.00;23.21;98067.19;7367637;19;19923;-73